Skip Navigation Links Skip Navigation Links

Current Weather

Philip Billard Muni, Topeka, Kan.

For information only: do not use for flight planning or navigation.
Latest weather
Observation time Monday, October 18, 2021 2:53 PM CDT
Local time Monday, October 18, 2021 3:56 PM CDT
Flight conditions Visual Meteorological Conditions
Winds
Wind direction South (180°)
Wind speed 17 mph
Wind gusting to 28 mph
Peak wind speed 30 mph, 2:05 PM
Peak wind direction South (170°)
Visibility 10 mi.
Sky condition
Ceiling unlimited
Sky clear
Temperature 74°F
Dewpoint 42°F
Altimeter 29.99 in.Hg
Derived measurements
Relative humidity 32%
Density altitude 1902 ft.
Sea-level pressure 29.98 in.Hg
Remarks
Automated weather observing station with precipitation discriminator.
METAR KTOP 181953Z 18015G24KT 10SM CLR 23/06 A2999 RMK AO2 PK WND 17026/1905 SLP154 T02330056

Settings

Location code

InnerDrive.Weather 4.0.6770.0 Release CLR 4.0.30319.42000
Copyright ©2018 Inner Drive Technology. All rights reserved. Portions Copyright ©1986-2018 David Braverman.

Find weather

Site navigation


Skip Navigation Links

Place info

Page info

PayPal - The safer, easier way to pay online!

Return home.

Copyright ©2021 Inner Drive Technology. Purveyors of fine, hand-crafted computer software. Page printed 2021-10-18T20:56:04 UTC.